sensor_id;sensor_type;location;lat;lon;timestamp;pressure;altitude;pressure_sealevel;temperature;humidity
21824;BME280;11074;48.596;9.238;2023-08-20T00:00:30;98561.63;;;24.11;84.58
21824;BME280;11074;48.596;9.238;2023-08-20T00:03:03;98559.88;;;24.07;84.35
21824;BME280;11074;48.596;9.238;2023-08-20T00:05:31;98555.41;;;24.02;85.14
21824;BME280;11074;48.596;9.238;2023-08-20T00:07:57;98557.19;;;23.98;84.62
21824;BME280;11074;48.596;9.238;2023-08-20T00:10:22;98558.59;;;24.04;84.72
21824;BME280;11074;48.596;9.238;2023-08-20T00:12:48;98559.41;;;24.05;84.65
21824;BME280;11074;48.596;9.238;2023-08-20T00:15:13;98565.19;;;24.03;84.84
21824;BME280;11074;48.596;9.238;2023-08-20T00:17:40;98560.41;;;24.00;84.82
21824;BME280;11074;48.596;9.238;2023-08-20T00:20:09;98565.63;;;24.14;84.54
21824;BME280;11074;48.596;9.238;2023-08-20T00:22:39;98556.16;;;24.11;84.32
21824;BME280;11074;48.596;9.238;2023-08-20T00:25:07;98558.81;;;24.29;83.92
21824;BME280;11074;48.596;9.238;2023-08-20T00:27:33;98568.47;;;24.26;83.87
21824;BME280;11074;48.596;9.238;2023-08-20T00:29:59;98560.78;;;24.20;83.74
21824;BME280;11074;48.596;9.238;2023-08-20T00:32:25;98567.09;;;24.11;84.47
21824;BME280;11074;48.596;9.238;2023-08-20T00:34:50;98562.78;;;24.10;83.56
21824;BME280;11074;48.596;9.238;2023-08-20T00:37:16;98567.59;;;24.05;83.83
21824;BME280;11074;48.596;9.238;2023-08-20T00:39:42;98568.72;;;24.04;84.32
21824;BME280;11074;48.596;9.238;2023-08-20T00:42:08;98568.94;;;23.90;84.43
21824;BME280;11074;48.596;9.238;2023-08-20T00:44:34;98566.84;;;23.96;84.03
21824;BME280;11074;48.596;9.238;2023-08-20T00:47:04;98566.03;;;23.95;84.61
21824;BME280;11074;48.596;9.238;2023-08-20T00:49:32;98559.81;;;23.86;83.84
21824;BME280;11074;48.596;9.238;2023-08-20T00:51:59;98565.94;;;23.83;84.36
21824;BME280;11074;48.596;9.238;2023-08-20T00:54:27;98569.78;;;23.82;84.08
21824;BME280;11074;48.596;9.238;2023-08-20T00:56:53;98569.16;;;23.77;84.39
21824;BME280;11074;48.596;9.238;2023-08-20T00:59:20;98568.69;;;23.75;84.88
21824;BME280;11074;48.596;9.238;2023-08-20T01:01:46;98565.34;;;23.69;84.71
21824;BME280;11074;48.596;9.238;2023-08-20T01:04:12;98572.78;;;23.60;85.36
21824;BME280;11074;48.596;9.238;2023-08-20T01:07:27;98578.91;;;23.48;85.96
21824;BME280;11074;48.596;9.238;2023-08-20T01:10:39;98581.34;;;23.41;86.43
21824;BME280;11074;48.596;9.238;2023-08-20T01:13:07;98576.34;;;23.35;86.71
21824;BME280;11074;48.596;9.238;2023-08-20T01:15:33;98580.53;;;23.32;86.96
21824;BME280;11074;48.596;9.238;2023-08-20T01:17:59;98585.03;;;23.37;87.12
21824;BME280;11074;48.596;9.238;2023-08-20T01:20:30;98585.84;;;23.46;86.36
21824;BME280;11074;48.596;9.238;2023-08-20T01:23:36;98578.28;;;23.43;87.26
21824;BME280;11074;48.596;9.238;2023-08-20T01:29:10;98579.44;;;23.33;87.76
21824;BME280;11074;48.596;9.238;2023-08-20T01:31:38;98579.09;;;23.35;87.97
21824;BME280;11074;48.596;9.238;2023-08-20T01:34:05;98582.31;;;23.28;87.38
21824;BME280;11074;48.596;9.238;2023-08-20T01:36:30;98586.69;;;23.04;88.11
21824;BME280;11074;48.596;9.238;2023-08-20T01:38:56;98585.88;;;23.12;87.64
21824;BME280;11074;48.596;9.238;2023-08-20T01:41:22;98587.97;;;23.15;87.68
21824;BME280;11074;48.596;9.238;2023-08-20T01:43:47;98581.53;;;23.11;87.62
21824;BME280;11074;48.596;9.238;2023-08-20T01:46:13;98590.53;;;23.03;87.49
21824;BME280;11074;48.596;9.238;2023-08-20T01:48:39;98591.50;;;22.98;87.83
21824;BME280;11074;48.596;9.238;2023-08-20T01:51:04;98594.56;;;22.97;88.89
21824;BME280;11074;48.596;9.238;2023-08-20T01:53:30;98592.31;;;22.99;88.73
21824;BME280;11074;48.596;9.238;2023-08-20T01:55:56;98586.69;;;23.04;87.93
21824;BME280;11074;48.596;9.238;2023-08-20T01:58:21;98587.97;;;22.98;88.24
21824;BME280;11074;48.596;9.238;2023-08-20T02:00:47;98593.25;;;23.03;88.15
21824;BME280;11074;48.596;9.238;2023-08-20T02:03:13;98594.88;;;23.04;87.97
21824;BME280;11074;48.596;9.238;2023-08-20T02:05:40;98589.13;;;22.97;88.20
21824;BME280;11074;48.596;9.238;2023-08-20T02:08:05;98589.41;;;22.95;88.49
21824;BME280;11074;48.596;9.238;2023-08-20T02:10:31;98587.66;;;22.90;88.86
21824;BME280;11074;48.596;9.238;2023-08-20T02:12:56;98589.75;;;22.85;89.43
21824;BME280;11074;48.596;9.238;2023-08-20T02:15:22;98593.59;;;23.01;88.18
21824;BME280;11074;48.596;9.238;2023-08-20T02:17:48;98595.84;;;22.99;88.76
21824;BME280;11074;48.596;9.238;2023-08-20T02:20:14;98592.50;;;22.93;89.00
21824;BME280;11074;48.596;9.238;2023-08-20T02:22:39;98592.66;;;22.80;89.21
21824;BME280;11074;48.596;9.238;2023-08-20T02:25:05;98594.41;;;22.76;89.59
21824;BME280;11074;48.596;9.238;2023-08-20T02:27:31;98601.31;;;22.82;89.83
21824;BME280;11074;48.596;9.238;2023-08-20T02:29:56;98596.81;;;22.77;89.80
21824;BME280;11074;48.596;9.238;2023-08-20T02:32:22;98597.28;;;22.71;89.87
21824;BME280;11074;48.596;9.238;2023-08-20T02:34:51;98591.78;;;22.62;90.02
21824;BME280;11074;48.596;9.238;2023-08-20T02:37:17;98600.66;;;22.68;90.09
21824;BME280;11074;48.596;9.238;2023-08-20T02:39:43;98603.38;;;22.76;89.50
21824;BME280;11074;48.596;9.238;2023-08-20T02:42:09;98592.13;;;22.61;89.50
21824;BME280;11074;48.596;9.238;2023-08-20T02:44:34;98599.19;;;22.53;89.67
21824;BME280;11074;48.596;9.238;2023-08-20T02:47:00;98594.03;;;22.60;89.09
21824;BME280;11074;48.596;9.238;2023-08-20T02:49:26;98595.06;;;22.64;89.09
21824;BME280;11074;48.596;9.238;2023-08-20T02:51:51;98593.75;;;22.62;88.87
21824;BME280;11074;48.596;9.238;2023-08-20T02:54:17;98595.81;;;22.56;88.90
21824;BME280;11074;48.596;9.238;2023-08-20T02:56:43;98597.56;;;22.61;88.84
21824;BME280;11074;48.596;9.238;2023-08-20T02:59:08;98594.84;;;22.52;88.50
21824;BME280;11074;48.596;9.238;2023-08-20T03:01:34;98597.91;;;22.51;88.93
21824;BME280;11074;48.596;9.238;2023-08-20T03:04:00;98601.44;;;22.51;88.74
21824;BME280;11074;48.596;9.238;2023-08-20T03:06:25;98595.00;;;22.47;89.13
21824;BME280;11074;48.596;9.238;2023-08-20T03:08:51;98597.09;;;22.50;89.17
21824;BME280;11074;48.596;9.238;2023-08-20T03:11:17;98597.41;;;22.40;89.45
21824;BME280;11074;48.596;9.238;2023-08-20T03:13:42;98593.38;;;22.38;89.85
21824;BME280;11074;48.596;9.238;2023-08-20T03:16:08;98599.13;;;22.36;89.80
21824;BME280;11074;48.596;9.238;2023-08-20T03:18:34;98589.22;;;22.31;89.80
21824;BME280;11074;48.596;9.238;2023-08-20T03:20:59;98588.91;;;22.42;89.00
21824;BME280;11074;48.596;9.238;2023-08-20T03:23:25;98589.69;;;22.33;90.26
21824;BME280;11074;48.596;9.238;2023-08-20T03:25:51;98582.94;;;22.31;89.50
21824;BME280;11074;48.596;9.238;2023-08-20T03:28:18;98592.75;;;22.32;90.38
21824;BME280;11074;48.596;9.238;2023-08-20T03:30:44;98586.31;;;22.28;90.82
21824;BME280;11074;48.596;9.238;2023-08-20T03:33:10;98586.72;;;22.04;92.54
21824;BME280;11074;48.596;9.238;2023-08-20T03:35:36;98579.41;;;22.13;91.90
21824;BME280;11074;48.596;9.238;2023-08-20T03:38:01;98588.13;;;21.93;92.97
21824;BME280;11074;48.596;9.238;2023-08-20T03:40:28;98589.59;;;21.99;93.21
21824;BME280;11074;48.596;9.238;2023-08-20T03:42:53;98588.50;;;22.00;92.75
21824;BME280;11074;48.596;9.238;2023-08-20T03:45:19;98589.00;;;21.80;93.41
21824;BME280;11074;48.596;9.238;2023-08-20T03:47:44;98587.88;;;21.72;94.45
21824;BME280;11074;48.596;9.238;2023-08-20T03:50:12;98597.19;;;21.80;94.12
21824;BME280;11074;48.596;9.238;2023-08-20T03:52:38;98601.97;;;21.74;94.68
21824;BME280;11074;48.596;9.238;2023-08-20T03:55:05;98588.41;;;21.83;93.82
21824;BME280;11074;48.596;9.238;2023-08-20T03:57:31;98585.63;;;22.05;92.74
21824;BME280;11074;48.596;9.238;2023-08-20T03:59:57;98586.44;;;22.14;92.16
21824;BME280;11074;48.596;9.238;2023-08-20T04:02:23;98589.31;;;22.01;91.88
21824;BME280;11074;48.596;9.238;2023-08-20T04:04:49;98586.72;;;22.04;91.28
21824;BME280;11074;48.596;9.238;2023-08-20T04:07:15;98586.44;;;22.06;90.98
21824;BME280;11074;48.596;9.238;2023-08-20T04:09:40;98585.44;;;22.02;90.85
21824;BME280;11074;48.596;9.238;2023-08-20T04:12:08;98582.34;;;21.86;91.37
21824;BME280;11074;48.596;9.238;2023-08-20T04:14:33;98571.47;;;21.86;91.45
21824;BME280;11074;48.596;9.238;2023-08-20T04:16:59;98576.06;;;21.86;91.71
21824;BME280;11074;48.596;9.238;2023-08-20T04:19:25;98581.41;;;21.91;91.30
21824;BME280;11074;48.596;9.238;2023-08-20T04:21:50;98575.81;;;21.87;91.29
21824;BME280;11074;48.596;9.238;2023-08-20T04:24:16;98578.31;;;21.84;91.85
21824;BME280;11074;48.596;9.238;2023-08-20T04:26:42;98578.75;;;21.68;93.66
21824;BME280;11074;48.596;9.238;2023-08-20T04:29:09;98588.38;;;21.44;95.10
21824;BME280;11074;48.596;9.238;2023-08-20T04:31:35;98598.78;;;21.42;95.65
21824;BME280;11074;48.596;9.238;2023-08-20T04:34:01;98601.00;;;21.40;96.18
21824;BME280;11074;48.596;9.238;2023-08-20T04:36:26;98588.63;;;21.64;95.60
21824;BME280;11074;48.596;9.238;2023-08-20T04:38:52;98591.06;;;21.74;94.82
21824;BME280;11074;48.596;9.238;2023-08-20T04:41:18;98587.34;;;21.62;94.86
21824;BME280;11074;48.596;9.238;2023-08-20T04:43:43;98588.47;;;21.61;94.63
21824;BME280;11074;48.596;9.238;2023-08-20T04:46:09;98591.31;;;21.56;94.13
21824;BME280;11074;48.596;9.238;2023-08-20T04:48:34;98587.06;;;21.63;94.19
21824;BME280;11074;48.596;9.238;2023-08-20T04:51:00;98591.34;;;21.64;93.98
21824;BME280;11074;48.596;9.238;2023-08-20T04:53:26;98595.75;;;21.74;93.44
21824;BME280;11074;48.596;9.238;2023-08-20T04:55:52;98604.72;;;21.83;93.40
21824;BME280;11074;48.596;9.238;2023-08-20T04:58:17;98599.16;;;21.88;92.55
21824;BME280;11074;48.596;9.238;2023-08-20T05:00:43;98599.28;;;21.83;92.73
21824;BME280;11074;48.596;9.238;2023-08-20T05:03:09;98604.53;;;21.80;93.22
21824;BME280;11074;48.596;9.238;2023-08-20T05:05:35;98606.94;;;21.72;93.29
21824;BME280;11074;48.596;9.238;2023-08-20T05:08:00;98614.00;;;21.73;93.21
21824;BME280;11074;48.596;9.238;2023-08-20T05:10:26;98619.09;;;21.75;92.64
21824;BME280;11074;48.596;9.238;2023-08-20T05:12:52;98628.03;;;21.67;92.69
21824;BME280;11074;48.596;9.238;2023-08-20T05:15:17;98622.97;;;21.74;92.64
21824;BME280;11074;48.596;9.238;2023-08-20T05:17:43;98629.44;;;21.87;92.62
21824;BME280;11074;48.596;9.238;2023-08-20T05:20:09;98631.06;;;21.96;92.27
21824;BME280;11074;48.596;9.238;2023-08-20T05:22:35;98622.47;;;22.03;93.29
21824;BME280;11074;48.596;9.238;2023-08-20T05:25:01;98620.69;;;22.07;93.43
21824;BME280;11074;48.596;9.238;2023-08-20T05:27:27;98612.84;;;22.05;93.91
21824;BME280;11074;48.596;9.238;2023-08-20T05:29:52;98612.38;;;22.12;92.32
21824;BME280;11074;48.596;9.238;2023-08-20T05:32:18;98609.03;;;22.15;92.11
21824;BME280;11074;48.596;9.238;2023-08-20T05:34:44;98618.19;;;22.19;92.15
21824;BME280;11074;48.596;9.238;2023-08-20T05:37:09;98610.81;;;22.19;92.09
21824;BME280;11074;48.596;9.238;2023-08-20T05:39:42;98609.38;;;22.22;92.25
21824;BME280;11074;48.596;9.238;2023-08-20T05:42:08;98600.56;;;22.25;91.99
21824;BME280;11074;48.596;9.238;2023-08-20T05:44:34;98607.94;;;22.33;91.46
21824;BME280;11074;48.596;9.238;2023-08-20T05:46:59;98604.56;;;22.27;92.32
21824;BME280;11074;48.596;9.238;2023-08-20T05:49:26;98613.41;;;22.24;93.18
21824;BME280;11074;48.596;9.238;2023-08-20T05:51:52;98628.00;;;22.37;92.36
21824;BME280;11074;48.596;9.238;2023-08-20T05:54:18;98626.31;;;22.10;94.37
21824;BME280;11074;48.596;9.238;2023-08-20T05:56:43;98633.38;;;22.11;94.43
21824;BME280;11074;48.596;9.238;2023-08-20T05:59:09;98621.25;;;22.26;93.16
21824;BME280;11074;48.596;9.238;2023-08-20T06:01:35;98621.75;;;22.37;92.54
21824;BME280;11074;48.596;9.238;2023-08-20T06:04:01;98628.97;;;22.50;92.89
21824;BME280;11074;48.596;9.238;2023-08-20T06:06:27;98634.13;;;22.51;92.60
21824;BME280;11074;48.596;9.238;2023-08-20T06:08:53;98635.88;;;22.47;92.58
21824;BME280;11074;48.596;9.238;2023-08-20T06:11:20;98628.03;;;22.54;92.39
21824;BME280;11074;48.596;9.238;2023-08-20T06:13:46;98629.69;;;22.64;91.60
21824;BME280;11074;48.596;9.238;2023-08-20T06:16:11;98634.00;;;22.65;92.05
21824;BME280;11074;48.596;9.238;2023-08-20T06:18:37;98628.72;;;22.68;92.50
21824;BME280;11074;48.596;9.238;2023-08-20T06:21:03;98628.25;;;22.75;92.50
21824;BME280;11074;48.596;9.238;2023-08-20T06:23:29;98626.81;;;22.77;91.61
21824;BME280;11074;48.596;9.238;2023-08-20T06:25:55;98635.13;;;22.81;91.81
21824;BME280;11074;48.596;9.238;2023-08-20T06:28:21;98641.41;;;22.90;92.73
21824;BME280;11074;48.596;9.238;2023-08-20T06:30:47;98637.22;;;22.92;91.20
21824;BME280;11074;48.596;9.238;2023-08-20T06:33:12;98640.28;;;23.00;90.81
21824;BME280;11074;48.596;9.238;2023-08-20T06:35:38;98643.34;;;23.07;92.11
21824;BME280;11074;48.596;9.238;2023-08-20T06:38:04;98640.44;;;23.12;90.49
21824;BME280;11074;48.596;9.238;2023-08-20T06:40:30;98636.44;;;23.18;90.67
21824;BME280;11074;48.596;9.238;2023-08-20T06:45:22;98637.53;;;23.34;92.44
21824;BME280;11074;48.596;9.238;2023-08-20T06:47:47;98638.00;;;23.36;90.45
21824;BME280;11074;48.596;9.238;2023-08-20T06:50:13;98633.88;;;23.38;90.22
21824;BME280;11074;48.596;9.238;2023-08-20T06:52:39;98657.28;;;23.48;89.74
21824;BME280;11074;48.596;9.238;2023-08-20T06:55:05;98647.00;;;23.53;89.01
21824;BME280;11074;48.596;9.238;2023-08-20T06:57:30;98653.41;;;23.58;89.18
21824;BME280;11074;48.596;9.238;2023-08-20T06:59:56;98647.47;;;23.56;89.44
21824;BME280;11074;48.596;9.238;2023-08-20T07:02:22;98640.88;;;23.57;88.56
21824;BME280;11074;48.596;9.238;2023-08-20T07:04:48;98642.16;;;23.59;89.62
21824;BME280;11074;48.596;9.238;2023-08-20T07:07:13;98650.16;;;23.64;89.09
21824;BME280;11074;48.596;9.238;2023-08-20T07:09:40;98655.00;;;23.67;89.03
21824;BME280;11074;48.596;9.238;2023-08-20T07:12:06;98651.28;;;23.72;89.37
21824;BME280;11074;48.596;9.238;2023-08-20T07:14:32;98658.97;;;23.78;88.78
21824;BME280;11074;48.596;9.238;2023-08-20T07:16:57;98658.47;;;23.85;87.68
21824;BME280;11074;48.596;9.238;2023-08-20T07:19:25;98649.00;;;23.82;89.51
21824;BME280;11074;48.596;9.238;2023-08-20T07:21:50;98670.97;;;23.94;89.23
21824;BME280;11074;48.596;9.238;2023-08-20T07:24:16;98667.09;;;23.95;89.35
21824;BME280;11074;48.596;9.238;2023-08-20T07:26:42;98664.22;;;24.00;89.05
21824;BME280;11074;48.596;9.238;2023-08-20T07:29:07;98668.34;;;24.06;87.01
21824;BME280;11074;48.596;9.238;2023-08-20T07:31:33;98663.88;;;24.10;87.93
21824;BME280;11074;48.596;9.238;2023-08-20T07:34:02;98661.41;;;24.18;87.10
21824;BME280;11074;48.596;9.238;2023-08-20T07:36:28;98662.19;;;24.27;88.44
21824;BME280;11074;48.596;9.238;2023-08-20T07:38:54;98663.13;;;24.31;86.81
21824;BME280;11074;48.596;9.238;2023-08-20T07:41:21;98664.53;;;24.37;88.51
21824;BME280;11074;48.596;9.238;2023-08-20T07:43:48;98664.69;;;24.40;89.24
21824;BME280;11074;48.596;9.238;2023-08-20T07:46:15;98671.09;;;24.44;86.45
21824;BME280;11074;48.596;9.238;2023-08-20T07:48:42;98665.28;;;24.46;86.41
21824;BME280;11074;48.596;9.238;2023-08-20T07:51:08;98661.13;;;24.48;86.99
21824;BME280;11074;48.596;9.238;2023-08-20T07:53:34;98663.78;;;24.57;88.67
21824;BME280;11074;48.596;9.238;2023-08-20T07:56:01;98664.94;;;24.56;89.88
21824;BME280;11074;48.596;9.238;2023-08-20T07:58:27;98673.41;;;24.63;87.66
21824;BME280;11074;48.596;9.238;2023-08-20T08:00:54;98677.41;;;24.65;87.17
21824;BME280;11074;48.596;9.238;2023-08-20T08:03:19;98680.28;;;24.69;87.15
21824;BME280;11074;48.596;9.238;2023-08-20T08:05:49;98683.28;;;24.76;88.09
21824;BME280;11074;48.596;9.238;2023-08-20T08:08:17;98678.44;;;24.82;85.89
21824;BME280;11074;48.596;9.238;2023-08-20T08:10:43;98681.78;;;24.87;85.86
21824;BME280;11074;48.596;9.238;2023-08-20T08:13:12;98677.06;;;24.96;84.81
21824;BME280;11074;48.596;9.238;2023-08-20T08:15:38;98680.59;;;24.97;88.11
21824;BME280;11074;48.596;9.238;2023-08-20T08:18:04;98678.75;;;25.09;86.54
21824;BME280;11074;48.596;9.238;2023-08-20T08:20:30;98678.75;;;25.09;85.41
21824;BME280;11074;48.596;9.238;2023-08-20T08:22:55;98681.28;;;25.14;85.26
21824;BME280;11074;48.596;9.238;2023-08-20T08:25:21;98682.19;;;25.18;85.01
21824;BME280;11074;48.596;9.238;2023-08-20T08:27:47;98678.78;;;25.21;84.79
21824;BME280;11074;48.596;9.238;2023-08-20T08:30:12;98684.41;;;25.25;86.37
21824;BME280;11074;48.596;9.238;2023-08-20T08:32:38;98675.19;;;25.29;86.64
21824;BME280;11074;48.596;9.238;2023-08-20T08:35:04;98675.41;;;25.37;87.34
21824;BME280;11074;48.596;9.238;2023-08-20T08:37:30;98678.91;;;25.46;85.29
21824;BME280;11074;48.596;9.238;2023-08-20T08:39:55;98675.06;;;25.47;79.47
21824;BME280;11074;48.596;9.238;2023-08-20T08:42:23;98676.78;;;25.51;79.92
21824;BME280;11074;48.596;9.238;2023-08-20T08:44:52;98683.72;;;25.49;82.48
21824;BME280;11074;48.596;9.238;2023-08-20T08:47:21;98682.03;;;25.56;83.78
21824;BME280;11074;48.596;9.238;2023-08-20T08:49:48;98681.81;;;25.61;84.62
21824;BME280;11074;48.596;9.238;2023-08-20T08:52:15;98677.59;;;25.64;83.41
21824;BME280;11074;48.596;9.238;2023-08-20T08:54:41;98669.31;;;25.72;80.08
21824;BME280;11074;48.596;9.238;2023-08-20T08:57:07;98663.47;;;25.74;77.89
21824;BME280;11074;48.596;9.238;2023-08-20T08:59:33;98669.00;;;25.86;78.46
21824;BME280;11074;48.596;9.238;2023-08-20T09:01:59;98672.66;;;25.90;77.53
21824;BME280;11074;48.596;9.238;2023-08-20T09:04:25;98677.44;;;25.93;79.32
21824;BME280;11074;48.596;9.238;2023-08-20T09:06:55;98673.94;;;26.05;82.29
21824;BME280;11074;48.596;9.238;2023-08-20T09:09:21;98681.59;;;26.11;78.68
21824;BME280;11074;48.596;9.238;2023-08-20T09:11:48;98680.59;;;26.16;77.26
21824;BME280;11074;48.596;9.238;2023-08-20T09:14:30;98672.16;;;26.21;77.50
21824;BME280;11074;48.596;9.238;2023-08-20T09:17:01;98678.44;;;26.21;76.33
21824;BME280;11074;48.596;9.238;2023-08-20T09:19:35;98676.59;;;26.25;79.60
21824;BME280;11074;48.596;9.238;2023-08-20T09:22:02;98675.94;;;26.28;75.12
21824;BME280;11074;48.596;9.238;2023-08-20T09:24:45;98673.50;;;26.27;74.05
21824;BME280;11074;48.596;9.238;2023-08-20T09:27:14;98672.06;;;26.29;76.73
21824;BME280;11074;48.596;9.238;2023-08-20T09:29:48;98683.56;;;26.35;80.18
21824;BME280;11074;48.596;9.238;2023-08-20T09:32:15;98668.63;;;26.44;79.14
21824;BME280;11074;48.596;9.238;2023-08-20T09:34:41;98678.66;;;26.53;76.13
21824;BME280;11074;48.596;9.238;2023-08-20T09:37:12;98672.16;;;26.57;74.63
21824;BME280;11074;48.596;9.238;2023-08-20T09:39:38;98670.78;;;26.63;78.03
21824;BME280;11074;48.596;9.238;2023-08-20T09:42:06;98671.78;;;26.71;73.60
21824;BME280;11074;48.596;9.238;2023-08-20T09:44:37;98667.91;;;26.72;72.23
21824;BME280;11074;48.596;9.238;2023-08-20T09:47:08;98676.59;;;26.74;75.34
21824;BME280;11074;48.596;9.238;2023-08-20T09:49:42;98670.53;;;26.80;71.87
21824;BME280;11074;48.596;9.238;2023-08-20T09:52:09;98668.25;;;26.82;75.87
21824;BME280;11074;48.596;9.238;2023-08-20T09:57:34;98669.28;;;26.90;70.35
21824;BME280;11074;48.596;9.238;2023-08-20T10:00:02;98669.72;;;26.92;70.93
21824;BME280;11074;48.596;9.238;2023-08-20T10:02:32;98663.41;;;26.91;70.45
21824;BME280;11074;48.596;9.238;2023-08-20T10:04:59;98661.25;;;26.97;72.84
21824;BME280;11074;48.596;9.238;2023-08-20T10:07:29;98661.09;;;27.05;71.25
21824;BME280;11074;48.596;9.238;2023-08-20T10:10:00;98661.09;;;27.05;70.38
21824;BME280;11074;48.596;9.238;2023-08-20T10:12:27;98666.34;;;27.11;69.64
21824;BME280;11074;48.596;9.238;2023-08-20T10:14:55;98661.84;;;27.18;71.02
21824;BME280;11074;48.596;9.238;2023-08-20T10:17:23;98663.78;;;27.18;69.28
21824;BME280;11074;48.596;9.238;2023-08-20T10:19:51;98654.56;;;27.10;68.62
21824;BME280;11074;48.596;9.238;2023-08-20T10:22:17;98656.72;;;27.17;71.62
21824;BME280;11074;48.596;9.238;2023-08-20T10:24:52;98653.38;;;27.23;69.51
21824;BME280;11074;48.596;9.238;2023-08-20T10:27:32;98655.97;;;27.32;71.71
21824;BME280;11074;48.596;9.238;2023-08-20T10:29:59;98649.19;;;27.41;69.52
21824;BME280;11074;48.596;9.238;2023-08-20T10:32:57;98649.75;;;27.47;68.25
21824;BME280;11074;48.596;9.238;2023-08-20T10:35:47;98655.50;;;27.42;68.45
21824;BME280;11074;48.596;9.238;2023-08-20T10:38:16;98648.66;;;27.36;67.90
21824;BME280;11074;48.596;9.238;2023-08-20T10:40:57;98641.00;;;27.29;68.76
21824;BME280;11074;48.596;9.238;2023-08-20T10:43:30;98649.78;;;27.35;69.48
21824;BME280;11074;48.596;9.238;2023-08-20T10:46:22;98643.38;;;27.43;70.62
21824;BME280;11074;48.596;9.238;2023-08-20T10:48:54;98653.41;;;27.51;67.79
21824;BME280;11074;48.596;9.238;2023-08-20T10:51:47;98644.75;;;27.64;68.14
21824;BME280;11074;48.596;9.238;2023-08-20T10:54:13;98653.00;;;27.64;67.35
21824;BME280;11074;48.596;9.238;2023-08-20T10:56:44;98647.41;;;27.77;68.61
21824;BME280;11074;48.596;9.238;2023-08-20T10:59:26;98641.38;;;27.87;66.89
21824;BME280;11074;48.596;9.238;2023-08-20T11:01:55;98642.63;;;27.89;65.30
21824;BME280;11074;48.596;9.238;2023-08-20T11:04:24;98643.97;;;27.95;65.91
21824;BME280;11074;48.596;9.238;2023-08-20T11:06:58;98644.41;;;27.97;67.21
21824;BME280;11074;48.596;9.238;2023-08-20T11:09:27;98639.19;;;28.08;67.24
21824;BME280;11074;48.596;9.238;2023-08-20T11:11:53;98642.13;;;28.15;65.80
21824;BME280;11074;48.596;9.238;2023-08-20T11:14:20;98637.25;;;28.24;65.62
21824;BME280;11074;48.596;9.238;2023-08-20T11:16:47;98642.56;;;28.33;65.30
21824;BME280;11074;48.596;9.238;2023-08-20T11:19:21;98642.19;;;28.50;67.32
21824;BME280;11074;48.596;9.238;2023-08-20T11:21:48;98643.94;;;28.58;65.12
21824;BME280;11074;48.596;9.238;2023-08-20T11:24:14;98629.13;;;28.62;63.46
21824;BME280;11074;48.596;9.238;2023-08-20T11:26:43;98636.91;;;28.76;63.94
21824;BME280;11074;48.596;9.238;2023-08-20T11:29:11;98635.09;;;28.83;64.08
21824;BME280;11074;48.596;9.238;2023-08-20T11:31:45;98635.81;;;28.80;63.43
21824;BME280;11074;48.596;9.238;2023-08-20T11:34:12;98628.44;;;28.84;62.44
21824;BME280;11074;48.596;9.238;2023-08-20T11:36:39;98620.34;;;28.92;62.40
21824;BME280;11074;48.596;9.238;2023-08-20T11:39:07;98627.78;;;28.91;63.23
21824;BME280;11074;48.596;9.238;2023-08-20T11:41:36;98623.69;;;29.01;63.61
21824;BME280;11074;48.596;9.238;2023-08-20T11:44:03;98612.94;;;29.15;62.15
21824;BME280;11074;48.596;9.238;2023-08-20T11:46:29;98615.97;;;28.91;61.31
21824;BME280;11074;48.596;9.238;2023-08-20T11:49:02;98617.63;;;28.76;62.44
21824;BME280;11074;48.596;9.238;2023-08-20T11:51:30;98613.00;;;28.99;63.34
21824;BME280;11074;48.596;9.238;2023-08-20T11:54:00;98618.91;;;29.17;61.94
21824;BME280;11074;48.596;9.238;2023-08-20T11:56:27;98615.63;;;29.30;61.46
21824;BME280;11074;48.596;9.238;2023-08-20T11:58:58;98607.50;;;29.57;60.78
21824;BME280;11074;48.596;9.238;2023-08-20T12:01:25;98606.19;;;29.73;60.23
21824;BME280;11074;48.596;9.238;2023-08-20T12:03:50;98602.59;;;29.92;59.84
21824;BME280;11074;48.596;9.238;2023-08-20T12:06:20;98609.09;;;30.03;58.65
21824;BME280;11074;48.596;9.238;2023-08-20T12:08:48;98603.69;;;30.10;57.22
21824;BME280;11074;48.596;9.238;2023-08-20T12:11:14;98600.09;;;30.06;57.22
21824;BME280;11074;48.596;9.238;2023-08-20T12:13:40;98594.31;;;30.15;57.30
21824;BME280;11074;48.596;9.238;2023-08-20T12:16:06;98596.75;;;30.20;56.84
21824;BME280;11074;48.596;9.238;2023-08-20T12:18:32;98594.97;;;30.05;57.03
21824;BME280;11074;48.596;9.238;2023-08-20T12:20:58;98590.28;;;29.63;58.04
21824;BME280;11074;48.596;9.238;2023-08-20T12:23:23;98597.38;;;29.64;58.65
21824;BME280;11074;48.596;9.238;2023-08-20T12:25:52;98593.81;;;29.64;58.13
21824;BME280;11074;48.596;9.238;2023-08-20T12:28:18;98583.22;;;29.43;58.97
21824;BME280;11074;48.596;9.238;2023-08-20T12:30:44;98586.28;;;29.61;58.67
21824;BME280;11074;48.596;9.238;2023-08-20T12:33:11;98589.38;;;30.01;56.93
21824;BME280;11074;48.596;9.238;2023-08-20T12:35:37;98588.25;;;30.32;56.73
21824;BME280;11074;48.596;9.238;2023-08-20T12:38:03;98579.69;;;30.63;55.16
21824;BME280;11074;48.596;9.238;2023-08-20T12:40:30;98577.75;;;30.67;55.35
21824;BME280;11074;48.596;9.238;2023-08-20T12:42:56;98575.94;;;30.78;55.22
21824;BME280;11074;48.596;9.238;2023-08-20T12:45:22;98563.91;;;30.63;55.41
21824;BME280;11074;48.596;9.238;2023-08-20T12:47:47;98571.28;;;30.86;55.61
21824;BME280;11074;48.596;9.238;2023-08-20T12:50:13;98564.75;;;30.97;53.97
21824;BME280;11074;48.596;9.238;2023-08-20T12:52:40;98563.09;;;31.26;53.06
21824;BME280;11074;48.596;9.238;2023-08-20T12:55:06;98553.31;;;31.32;53.13
21824;BME280;11074;48.596;9.238;2023-08-20T12:57:35;98567.72;;;31.48;53.35
21824;BME280;11074;48.596;9.238;2023-08-20T13:00:05;98555.34;;;31.39;53.53
21824;BME280;11074;48.596;9.238;2023-08-20T13:02:37;98552.72;;;31.49;54.06
21824;BME280;11074;48.596;9.238;2023-08-20T13:05:03;98560.41;;;31.70;51.42
21824;BME280;11074;48.596;9.238;2023-08-20T13:07:30;98553.28;;;31.69;51.58
21824;BME280;11074;48.596;9.238;2023-08-20T13:09:56;98547.28;;;31.60;52.64